createdAt,value
2023-03-16T00:00:23.652Z,27.30
2023-03-16T00:02:51.559Z,27.75
2023-03-16T00:05:19.618Z,26.58
2023-03-16T00:07:47.503Z,25.30
2023-03-16T12:16:22.333Z,0.85
2023-03-16T12:18:54.244Z,1.20
2023-03-16T12:21:25.856Z,1.10
2023-03-16T12:23:55.369Z,0.90
2023-03-16T12:26:26.446Z,0.93
2023-03-16T12:28:55.548Z,1.50
2023-03-16T12:31:37.504Z,0.68
2023-03-16T12:34:24.219Z,0.82
2023-03-16T12:37:02.546Z,0.80
2023-03-16T12:39:45.850Z,0.77
2023-03-16T12:42:29.317Z,0.52
2023-03-16T12:45:00.921Z,0.50
2023-03-16T12:47:34.498Z,0.43
2023-03-16T12:50:07.643Z,0.85
2023-03-16T12:52:43.131Z,0.90
2023-03-16T12:55:15.503Z,1.23
2023-03-16T12:57:44.912Z,1.80
2023-03-16T13:00:15.453Z,1.48
2023-03-16T13:02:50.864Z,1.48
2023-03-16T13:05:29.996Z,1.55
2023-03-16T13:08:08.011Z,1.75
2023-03-16T13:10:37.466Z,3.75
2023-03-16T13:13:11.317Z,4.55
2023-03-16T13:15:40.139Z,8.85
2023-03-16T13:18:24.792Z,9.63
2023-03-16T13:20:58.158Z,10.75
2023-03-16T13:23:28.995Z,10.13
2023-03-16T13:26:06.761Z,9.15
2023-03-16T13:28:37.587Z,9.68
2023-03-16T13:31:18.004Z,9.07
2023-03-16T13:33:49.139Z,7.78
2023-03-16T13:36:17.539Z,8.23
2023-03-16T13:38:56.045Z,7.15
2023-03-16T13:41:24.784Z,6.60
2023-03-16T13:43:53.002Z,6.88
2023-03-16T13:46:27.982Z,7.20
2023-03-16T13:51:26.528Z,6.10
2023-03-16T13:53:54.753Z,5.78
2023-03-16T13:56:26.887Z,4.75
2023-03-16T13:58:56.954Z,5.05
2023-03-16T14:01:28.238Z,4.93
2023-03-16T14:04:03.295Z,4.55
2023-03-16T14:09:05.120Z,3.58
2023-03-16T14:11:33.133Z,4.50
2023-03-16T14:14:02.165Z,3.42
2023-03-16T14:16:32.205Z,3.65
2023-03-16T14:19:04.909Z,3.78
2023-03-16T14:21:34.946Z,3.10
2023-03-16T14:24:05.372Z,3.35
2023-03-16T14:26:42.356Z,3.67
2023-03-16T14:29:19.869Z,3.50
2023-03-16T14:31:47.879Z,3.17
2023-03-16T14:34:29.858Z,3.08
2023-03-16T14:37:17.570Z,2.15
2023-03-16T14:39:45.667Z,2.78
2023-03-16T14:42:18.904Z,3.20
2023-03-16T14:44:47.550Z,3.20
2023-03-16T14:47:23.416Z,3.05
2023-03-16T14:49:53.282Z,2.72
2023-03-16T14:52:27.224Z,5.28
2023-03-16T14:54:55.536Z,2.50
2023-03-16T14:57:24.440Z,2.63
2023-03-16T14:59:52.321Z,2.50
2023-03-16T15:02:25.424Z,2.95
2023-03-16T15:04:55.522Z,2.90
2023-03-16T15:07:25.924Z,3.20
2023-03-16T15:09:55.716Z,3.17
2023-03-16T15:12:26.127Z,2.90
2023-03-16T15:15:11.116Z,3.15
2023-03-16T15:17:39.021Z,2.80
2023-03-16T15:20:10.047Z,2.97
2023-03-16T15:22:39.886Z,3.08
2023-03-16T15:25:26.600Z,2.88
2023-03-16T15:27:54.994Z,2.70
2023-03-16T15:30:25.855Z,3.00
2023-03-16T15:32:54.217Z,3.05
2023-03-16T15:35:23.602Z,3.63
2023-03-16T15:37:51.500Z,2.90
2023-03-16T15:40:22.389Z,3.33
2023-03-16T15:42:50.461Z,3.03
2023-03-16T15:45:20.683Z,3.22
2023-03-16T15:47:49.684Z,3.28
2023-03-16T15:50:20.730Z,2.88
2023-03-16T15:52:53.698Z,3.13
2023-03-16T15:55:24.322Z,2.90
2023-03-16T15:57:58.919Z,2.80
2023-03-16T16:00:33.077Z,2.90
2023-03-16T16:03:01.952Z,3.47
2023-03-16T16:05:30.898Z,2.25
2023-03-16T16:08:00.836Z,2.70
2023-03-16T16:10:29.621Z,2.60
2023-03-16T16:12:58.321Z,2.88
2023-03-16T16:15:29.410Z,2.95
2023-03-16T16:18:19.881Z,2.85
2023-03-16T16:20:46.387Z,2.90
2023-03-16T16:23:15.669Z,2.67
2023-03-16T16:25:43.940Z,2.60
2023-03-16T16:28:17.497Z,2.70
2023-03-16T16:30:45.991Z,2.38
2023-03-16T16:33:25.003Z,2.53
2023-03-16T16:35:53.195Z,2.03
2023-03-16T16:38:23.013Z,2.10
2023-03-16T16:40:51.874Z,1.75
2023-03-16T16:43:28.272Z,1.50
2023-03-16T16:45:56.306Z,1.70
2023-03-16T16:48:31.685Z,1.60
2023-03-16T16:50:59.792Z,1.70
2023-03-16T16:53:29.255Z,1.20
2023-03-16T16:55:57.682Z,1.33
2023-03-16T16:58:25.888Z,1.48
2023-03-16T17:00:55.682Z,1.25
2023-03-16T17:03:25.620Z,0.85
2023-03-16T17:05:54.230Z,1.25
2023-03-16T17:08:23.167Z,0.95
2023-03-16T17:10:53.174Z,1.00
2023-03-16T17:13:27.255Z,1.00
2023-03-16T17:15:55.836Z,1.13
2023-03-16T17:18:24.333Z,1.30
2023-03-16T17:20:52.365Z,1.30
2023-03-16T17:23:27.418Z,0.90
2023-03-16T17:28:27.361Z,0.73
2023-03-16T17:30:55.359Z,0.90
2023-03-16T17:33:26.283Z,1.00
2023-03-16T17:35:54.207Z,0.80
2023-03-16T17:38:24.479Z,0.98
2023-03-16T17:40:53.894Z,0.80
2023-03-16T17:43:24.755Z,1.05
2023-03-16T17:45:53.789Z,0.88
2023-03-16T17:48:24.120Z,0.73
2023-03-16T17:50:52.452Z,1.15
2023-03-16T17:53:21.804Z,0.80
2023-03-16T17:55:49.747Z,1.00
2023-03-16T17:58:26.739Z,1.02
2023-03-16T18:00:55.892Z,0.80
2023-03-16T18:03:28.097Z,0.90
2023-03-16T18:05:57.184Z,1.00
2023-03-16T18:08:27.341Z,0.90
2023-03-16T18:10:57.859Z,0.70
2023-03-16T18:13:30.653Z,0.68
2023-03-16T18:15:59.464Z,0.90
2023-03-16T18:18:29.308Z,0.80
2023-03-16T18:21:00.326Z,0.55
2023-03-16T18:23:30.357Z,0.70
2023-03-16T18:26:01.146Z,0.70
2023-03-16T18:28:30.635Z,0.60
2023-03-16T18:30:59.295Z,0.57
2023-03-16T18:33:30.287Z,0.60
2023-03-16T18:36:00.635Z,0.60
2023-03-16T18:38:31.988Z,0.50
2023-03-16T18:41:02.021Z,0.50
2023-03-16T18:43:31.405Z,0.40
2023-03-16T18:45:59.280Z,0.50
2023-03-16T18:48:30.998Z,0.50
2023-03-16T18:50:59.065Z,0.40
2023-03-16T18:53:28.931Z,0.50
2023-03-16T18:55:57.749Z,0.38
2023-03-16T18:58:25.958Z,0.45
2023-03-16T19:00:56.819Z,0.55
2023-03-16T19:03:27.308Z,0.43
2023-03-16T19:05:56.999Z,0.57
2023-03-16T19:08:26.343Z,0.32
2023-03-16T19:10:57.049Z,0.30
2023-03-16T19:13:26.459Z,0.40
2023-03-16T19:15:57.742Z,0.40
2023-03-16T19:18:26.645Z,1.88
2023-03-16T19:20:56.471Z,3.30
2023-03-16T19:23:27.542Z,4.18
2023-03-16T19:25:56.404Z,5.00
2023-03-16T19:28:29.095Z,5.47
2023-03-16T19:30:58.360Z,8.27
2023-03-16T19:33:27.531Z,7.78
2023-03-16T19:35:56.677Z,6.35
2023-03-16T19:38:26.263Z,9.25
2023-03-16T19:40:56.327Z,6.90
2023-03-16T19:43:24.898Z,10.45
2023-03-16T19:45:54.643Z,6.75
2023-03-16T19:48:32.124Z,8.23
2023-03-16T19:51:00.036Z,8.57
2023-03-16T19:53:27.982Z,9.30
2023-03-16T19:55:55.988Z,9.45
2023-03-16T19:58:30.915Z,10.90
2023-03-16T20:03:28.705Z,13.82
2023-03-16T20:05:56.607Z,14.88
2023-03-16T20:08:26.432Z,16.27
2023-03-16T20:10:57.910Z,14.50
2023-03-16T20:13:26.253Z,16.67
2023-03-16T20:15:54.295Z,14.80
2023-03-16T20:18:22.242Z,20.77
2023-03-16T20:20:51.699Z,16.77
2023-03-16T20:23:24.430Z,21.05
2023-03-16T20:25:54.528Z,16.65
2023-03-16T20:28:24.561Z,16.15
2023-03-16T20:30:53.675Z,21.38
2023-03-16T20:33:24.048Z,14.90
2023-03-16T20:35:54.297Z,15.82
2023-03-16T20:38:22.842Z,16.45
2023-03-16T20:40:53.294Z,18.65
2023-03-16T20:43:26.939Z,20.73
2023-03-16T20:45:57.320Z,17.55
2023-03-16T20:48:25.935Z,22.88
2023-03-16T20:50:56.171Z,21.25
2023-03-16T20:53:24.681Z,16.52
2023-03-16T20:55:54.482Z,20.23
2023-03-16T20:58:25.457Z,20.00
2023-03-16T21:00:57.317Z,20.63
2023-03-16T21:03:27.511Z,20.65
2023-03-16T21:05:59.651Z,16.83
2023-03-16T21:08:27.982Z,17.33
2023-03-16T21:10:57.050Z,17.77
2023-03-16T21:13:29.454Z,19.65
2023-03-16T21:16:00.289Z,17.83
2023-03-16T21:18:28.825Z,17.48
2023-03-16T21:20:58.866Z,15.05
2023-03-16T21:23:26.896Z,19.20
2023-03-16T21:25:56.911Z,19.65
2023-03-16T21:28:26.446Z,20.58
2023-03-16T21:30:58.746Z,17.10
2023-03-16T21:33:30.031Z,19.45
2023-03-16T21:36:00.357Z,16.67
2023-03-16T21:38:29.778Z,19.40
2023-03-16T21:40:58.128Z,20.40
2023-03-16T21:43:26.946Z,18.15
2023-03-16T21:45:56.726Z,18.17
2023-03-16T21:48:29.651Z,19.15
2023-03-16T21:50:59.624Z,17.88
2023-03-16T21:53:29.460Z,17.38
2023-03-16T21:55:58.691Z,17.13
2023-03-16T21:58:27.111Z,18.98
2023-03-16T22:00:56.999Z,15.50
2023-03-16T22:03:33.019Z,18.95
2023-03-16T22:06:12.573Z,16.45
2023-03-16T22:08:41.573Z,15.93
2023-03-16T22:11:16.663Z,15.88
2023-03-16T22:13:44.557Z,14.48
2023-03-16T22:16:16.386Z,15.45
2023-03-16T22:18:45.745Z,14.93
2023-03-16T22:21:28.539Z,13.88
2023-03-16T22:23:58.375Z,15.95
2023-03-16T22:26:27.686Z,15.05
2023-03-16T22:28:56.400Z,16.30
2023-03-16T22:31:31.866Z,18.17
2023-03-16T22:34:00.645Z,17.55
2023-03-16T22:36:32.465Z,17.65
2023-03-16T22:39:02.918Z,18.95
2023-03-16T22:41:31.007Z,17.80
2023-03-16T22:43:59.758Z,20.10
2023-03-16T22:46:29.315Z,18.08
2023-03-16T22:48:57.761Z,18.35
2023-03-16T22:51:30.775Z,19.10
2023-03-16T22:54:02.354Z,18.00
2023-03-16T22:56:31.764Z,18.23
2023-03-16T22:59:02.134Z,20.45
2023-03-16T23:01:34.508Z,21.17
2023-03-16T23:04:03.317Z,19.83
2023-03-16T23:06:33.364Z,21.52
2023-03-16T23:09:01.259Z,20.42
2023-03-16T23:11:32.130Z,22.77
2023-03-16T23:14:03.184Z,23.15
2023-03-16T23:16:35.171Z,20.33
2023-03-16T23:19:07.669Z,22.05
2023-03-16T23:21:42.089Z,22.20
2023-03-16T23:24:10.579Z,18.63
2023-03-16T23:26:39.234Z,22.98
2023-03-16T23:29:07.174Z,29.55
2023-03-16T23:31:35.080Z,22.15
2023-03-16T23:34:02.941Z,22.30
2023-03-16T23:36:30.773Z,22.23
2023-03-16T23:38:59.978Z,20.40
